createdAt,value
2022-12-31T00:01:56.220Z,64.70
2022-12-31T00:04:57.837Z,64.79
2022-12-31T00:07:59.544Z,64.90
2022-12-31T00:11:01.094Z,64.74
2022-12-31T00:14:03.505Z,65.03
2022-12-31T00:17:05.118Z,64.89
2022-12-31T00:20:07.331Z,64.80
2022-12-31T00:23:10.582Z,64.96
2022-12-31T00:26:14.560Z,65.00
2022-12-31T00:29:16.113Z,64.99
2022-12-31T00:32:17.802Z,64.95
2022-12-31T00:35:19.350Z,64.84
2022-12-31T00:38:20.905Z,64.86
2022-12-31T00:41:23.929Z,64.86
2022-12-31T00:44:25.595Z,64.99
2022-12-31T00:47:27.242Z,64.96
2022-12-31T00:50:28.795Z,64.94
2022-12-31T00:53:30.508Z,65.16
2022-12-31T00:56:32.110Z,64.94
2022-12-31T00:59:33.657Z,65.14
2022-12-31T01:02:35.623Z,64.95
2022-12-31T01:05:37.514Z,64.96
2022-12-31T01:08:39.070Z,64.92
2022-12-31T01:11:41.005Z,64.99
2022-12-31T01:14:42.803Z,64.98
2022-12-31T01:17:44.345Z,65.03
2022-12-31T01:20:45.907Z,64.91
2022-12-31T01:23:47.924Z,65.04
2022-12-31T01:26:50.910Z,65.02
2022-12-31T01:29:52.488Z,64.97
2022-12-31T01:32:54.018Z,65.10
2022-12-31T01:35:55.581Z,65.16
2022-12-31T01:38:59.610Z,65.01
2022-12-31T01:42:01.178Z,65.07
2022-12-31T01:45:03.022Z,64.99
2022-12-31T01:48:04.876Z,65.01
2022-12-31T01:51:09.073Z,65.15
2022-12-31T01:54:15.070Z,65.14
2022-12-31T01:57:17.711Z,65.13
2022-12-31T02:00:19.914Z,65.02
2022-12-31T02:03:23.416Z,65.15
2022-12-31T02:06:33.323Z,65.13
2022-12-31T02:09:38.904Z,65.17
2022-12-31T02:12:40.852Z,65.25
2022-12-31T02:16:00.430Z,65.19
2022-12-31T02:19:04.959Z,65.45
2022-12-31T02:22:17.311Z,65.29
2022-12-31T02:25:40.123Z,65.16
2022-12-31T02:28:50.380Z,65.35
2022-12-31T02:32:00.817Z,65.31
2022-12-31T02:35:14.492Z,65.26
2022-12-31T02:38:22.413Z,65.36
2022-12-31T02:41:42.794Z,65.33
2022-12-31T02:44:44.366Z,65.35
2022-12-31T02:48:05.825Z,65.29
2022-12-31T02:51:10.131Z,65.45
2022-12-31T02:54:28.517Z,65.38
2022-12-31T02:57:36.289Z,65.46
2022-12-31T03:01:03.179Z,65.45
2022-12-31T03:04:25.514Z,65.45
2022-12-31T03:07:28.934Z,65.42
2022-12-31T03:10:30.496Z,65.55
2022-12-31T03:13:32.057Z,65.53
2022-12-31T03:16:35.042Z,65.42
2022-12-31T03:19:55.080Z,65.41
2022-12-31T03:22:56.579Z,65.57
2022-12-31T03:25:59.166Z,65.53
2022-12-31T03:29:00.712Z,65.48
2022-12-31T03:32:02.312Z,65.48
2022-12-31T03:35:04.957Z,65.42
2022-12-31T03:38:06.902Z,65.63
2022-12-31T03:41:11.242Z,65.47
2022-12-31T03:44:12.748Z,65.60
2022-12-31T03:47:14.326Z,65.55
2022-12-31T03:50:18.187Z,65.63
2022-12-31T03:53:19.751Z,65.57
2022-12-31T03:56:21.346Z,65.50
2022-12-31T03:59:22.853Z,65.57
2022-12-31T04:02:28.572Z,65.54
2022-12-31T04:05:31.312Z,65.65
2022-12-31T04:08:32.871Z,65.59
2022-12-31T04:11:34.458Z,65.71
2022-12-31T04:14:36.086Z,65.73
2022-12-31T04:17:37.753Z,65.66
2022-12-31T04:20:39.282Z,65.75
2022-12-31T04:23:40.813Z,65.71
2022-12-31T04:26:44.278Z,65.62
2022-12-31T04:29:46.112Z,65.70
2022-12-31T04:32:47.661Z,65.82
2022-12-31T04:35:49.209Z,65.71
2022-12-31T04:38:50.758Z,65.62
2022-12-31T04:41:52.766Z,65.64
2022-12-31T04:44:54.269Z,65.66
2022-12-31T04:47:55.813Z,65.72
2022-12-31T04:50:57.354Z,65.69
2022-12-31T04:53:59.380Z,65.70
2022-12-31T04:57:00.893Z,65.76
2022-12-31T05:00:02.464Z,65.76
2022-12-31T05:03:04.137Z,65.64
2022-12-31T05:06:09.112Z,65.47
2022-12-31T05:09:10.647Z,65.69
2022-12-31T05:12:12.255Z,65.72
2022-12-31T05:15:13.841Z,65.67
2022-12-31T05:18:15.456Z,65.65
2022-12-31T05:21:21.111Z,65.63
2022-12-31T05:24:22.843Z,65.58
2022-12-31T05:27:24.557Z,65.63
2022-12-31T05:30:26.221Z,65.72
2022-12-31T05:33:27.869Z,65.80
2022-12-31T05:36:29.382Z,65.76
2022-12-31T05:39:30.928Z,65.74
2022-12-31T05:42:32.546Z,65.78
2022-12-31T05:45:34.154Z,65.93
2022-12-31T05:48:36.144Z,65.71
2022-12-31T05:51:37.713Z,65.75
2022-12-31T05:54:39.285Z,65.71
2022-12-31T05:57:41.075Z,65.74
2022-12-31T06:00:43.069Z,65.79
2022-12-31T06:03:44.716Z,65.72
2022-12-31T06:06:46.313Z,65.64
2022-12-31T06:09:47.886Z,65.70
2022-12-31T06:12:49.417Z,65.72
2022-12-31T06:15:51.137Z,65.83
2022-12-31T06:18:53.001Z,65.59
2022-12-31T06:21:54.561Z,65.60
2022-12-31T06:24:56.170Z,65.72
2022-12-31T06:27:57.720Z,65.61
2022-12-31T06:31:04.775Z,65.63
2022-12-31T06:34:06.918Z,65.50
2022-12-31T06:37:08.595Z,65.58
2022-12-31T06:40:10.818Z,65.69
2022-12-31T06:43:12.369Z,65.58
2022-12-31T06:46:16.996Z,65.46
2022-12-31T06:49:18.709Z,65.62
2022-12-31T06:52:21.290Z,65.64
2022-12-31T06:55:23.374Z,65.52
2022-12-31T06:58:25.237Z,65.66
2022-12-31T07:01:43.462Z,65.63
2022-12-31T07:05:06.542Z,65.47
2022-12-31T07:08:11.409Z,65.57
2022-12-31T07:11:23.620Z,65.57
2022-12-31T07:14:36.074Z,65.64
2022-12-31T07:17:54.969Z,65.56
2022-12-31T07:20:56.771Z,65.51
2022-12-31T07:23:58.588Z,65.66
2022-12-31T07:27:00.079Z,65.21
2022-12-31T07:30:03.975Z,65.25
2022-12-31T07:33:45.832Z,65.31
2022-12-31T07:37:07.895Z,65.19
2022-12-31T07:40:29.117Z,65.45
2022-12-31T07:44:06.346Z,65.93
2022-12-31T07:47:26.729Z,65.53
2022-12-31T07:50:29.958Z,65.62
2022-12-31T07:53:31.789Z,65.59
2022-12-31T07:56:33.499Z,65.78
2022-12-31T07:59:37.924Z,65.83
2022-12-31T08:03:17.463Z,67.02
2022-12-31T08:06:37.685Z,66.55
2022-12-31T08:09:59.763Z,65.93
2022-12-31T08:13:04.031Z,65.70
2022-12-31T08:16:11.510Z,65.83
2022-12-31T08:19:26.284Z,65.74
2022-12-31T08:23:08.994Z,65.74
2022-12-31T08:26:13.626Z,65.84
2022-12-31T08:29:24.163Z,66.29
2022-12-31T08:32:40.234Z,66.06
2022-12-31T08:36:00.329Z,65.70
2022-12-31T08:39:22.101Z,65.91
2022-12-31T08:42:44.093Z,65.99
2022-12-31T08:45:49.375Z,65.87
2022-12-31T08:48:51.082Z,65.96
2022-12-31T08:51:53.082Z,66.08
2022-12-31T08:54:54.977Z,66.05
2022-12-31T08:58:15.915Z,66.02
2022-12-31T09:01:22.238Z,66.03
2022-12-31T09:04:33.025Z,66.08
2022-12-31T09:07:39.407Z,65.97
2022-12-31T09:11:04.177Z,66.11
2022-12-31T09:14:24.571Z,66.14
2022-12-31T09:17:36.059Z,66.09
2022-12-31T09:20:43.317Z,66.07
2022-12-31T09:23:46.123Z,66.06
2022-12-31T09:27:27.529Z,66.05
2022-12-31T09:30:38.261Z,66.08
2022-12-31T09:33:57.226Z,66.17
2022-12-31T09:37:16.468Z,66.64
2022-12-31T09:40:56.470Z,66.14
2022-12-31T09:44:48.290Z,66.01
2022-12-31T09:48:02.054Z,66.12
2022-12-31T09:51:09.558Z,66.05
2022-12-31T09:54:30.011Z,66.13
2022-12-31T09:57:43.133Z,66.13
2022-12-31T10:00:51.669Z,66.11
2022-12-31T10:04:09.603Z,66.03
2022-12-31T10:07:11.153Z,66.37
2022-12-31T10:10:22.874Z,66.12
2022-12-31T10:13:33.264Z,66.19
2022-12-31T10:16:53.349Z,66.09
2022-12-31T10:20:10.041Z,65.96
2022-12-31T10:23:20.363Z,66.09
2022-12-31T10:26:53.028Z,66.11
2022-12-31T10:29:57.820Z,66.25
2022-12-31T10:33:36.982Z,66.00
2022-12-31T10:37:06.494Z,66.14
2022-12-31T10:40:25.490Z,66.13
2022-12-31T10:43:51.946Z,66.09
2022-12-31T10:47:32.565Z,66.18
2022-12-31T10:50:47.734Z,66.07
2022-12-31T10:54:05.670Z,66.02
2022-12-31T10:57:25.510Z,66.16
2022-12-31T11:00:30.995Z,66.35
2022-12-31T11:03:38.666Z,66.14
2022-12-31T11:07:01.780Z,66.13
2022-12-31T11:10:09.470Z,66.27
2022-12-31T11:13:38.977Z,66.17
2022-12-31T11:17:04.968Z,66.17
2022-12-31T11:20:15.785Z,66.18
2022-12-31T11:23:29.425Z,66.15
2022-12-31T11:26:49.407Z,66.27
2022-12-31T11:30:04.799Z,66.31
2022-12-31T11:33:06.297Z,65.87
2022-12-31T11:36:26.325Z,66.30
2022-12-31T11:39:36.611Z,66.07
2022-12-31T11:43:10.247Z,66.22
2022-12-31T11:46:14.884Z,66.15
2022-12-31T11:49:26.476Z,66.21
2022-12-31T11:52:52.887Z,66.18
2022-12-31T11:56:06.600Z,66.06
2022-12-31T11:59:18.598Z,66.14
2022-12-31T12:02:32.555Z,66.34
2022-12-31T12:05:35.605Z,66.06
2022-12-31T12:08:37.881Z,66.15
2022-12-31T12:11:40.954Z,66.17
2022-12-31T12:14:45.403Z,66.03
2022-12-31T12:17:53.287Z,66.03
2022-12-31T12:21:13.394Z,65.90
2022-12-31T12:24:25.244Z,66.24
2022-12-31T12:27:32.532Z,66.08
2022-12-31T12:30:38.486Z,65.96
2022-12-31T12:33:46.125Z,65.98
2022-12-31T12:36:47.969Z,66.09
2022-12-31T12:40:01.558Z,66.04
2022-12-31T12:43:03.616Z,66.31
2022-12-31T12:46:18.204Z,66.08
2022-12-31T12:49:26.438Z,66.36
2022-12-31T12:52:59.897Z,66.31
2022-12-31T12:56:01.433Z,66.15
2022-12-31T12:59:15.864Z,66.33
2022-12-31T13:02:42.665Z,66.47
2022-12-31T13:06:23.071Z,66.18
2022-12-31T13:09:33.724Z,66.42
2022-12-31T13:13:25.935Z,66.49
2022-12-31T13:16:50.689Z,66.34
2022-12-31T13:20:13.012Z,66.20
2022-12-31T13:23:14.574Z,66.51
2022-12-31T13:26:34.445Z,66.62
2022-12-31T13:29:37.725Z,66.48
2022-12-31T13:32:43.399Z,66.25
2022-12-31T13:35:53.322Z,66.38
2022-12-31T13:38:59.406Z,66.48
2022-12-31T13:42:14.635Z,66.27
2022-12-31T13:45:26.942Z,66.55
2022-12-31T13:48:36.131Z,66.38
2022-12-31T13:51:45.028Z,66.64
2022-12-31T13:54:58.398Z,66.44
2022-12-31T13:58:27.887Z,66.58
2022-12-31T14:02:04.592Z,66.39
2022-12-31T14:05:12.219Z,66.63
2022-12-31T14:08:14.026Z,66.36
2022-12-31T14:11:46.670Z,66.21
2022-12-31T14:15:03.447Z,66.35
2022-12-31T14:18:15.712Z,66.52
2022-12-31T14:21:28.756Z,66.31
2022-12-31T14:24:49.740Z,66.28
2022-12-31T14:27:54.497Z,66.26
2022-12-31T14:31:08.975Z,66.43
2022-12-31T14:34:16.458Z,66.24
2022-12-31T14:37:31.111Z,66.28
2022-12-31T14:41:11.791Z,66.25
2022-12-31T14:44:38.779Z,66.45
2022-12-31T14:47:57.132Z,66.35
2022-12-31T14:51:02.270Z,66.37
2022-12-31T14:54:04.093Z,66.79
2022-12-31T14:57:17.912Z,66.46
2022-12-31T15:00:24.823Z,66.71
2022-12-31T15:03:42.933Z,66.46
2022-12-31T15:07:16.891Z,66.82
2022-12-31T15:10:43.479Z,66.46
2022-12-31T15:14:06.621Z,66.46
2022-12-31T15:17:11.251Z,66.40
2022-12-31T15:20:30.773Z,66.49
2022-12-31T15:23:43.845Z,66.29
2022-12-31T15:26:52.597Z,66.22
2022-12-31T15:29:54.300Z,66.45
2022-12-31T15:32:59.074Z,66.40
2022-12-31T15:36:13.674Z,66.39
2022-12-31T15:39:15.485Z,66.27
2022-12-31T15:42:39.930Z,66.72
2022-12-31T15:45:43.650Z,66.52
2022-12-31T15:48:52.617Z,66.53
2022-12-31T15:52:01.350Z,66.53
2022-12-31T15:55:05.726Z,66.66
2022-12-31T15:58:21.121Z,66.32
2022-12-31T16:01:31.343Z,66.42
2022-12-31T16:04:33.738Z,66.67
2022-12-31T16:07:35.629Z,66.40
2022-12-31T16:10:37.218Z,66.42
2022-12-31T16:13:48.612Z,66.63
2022-12-31T16:16:56.461Z,66.64
2022-12-31T16:20:00.482Z,66.54
2022-12-31T16:23:03.502Z,66.61
2022-12-31T16:26:05.761Z,66.60
2022-12-31T16:29:13.570Z,66.36
2022-12-31T16:32:17.726Z,66.51
2022-12-31T16:35:25.957Z,66.43
2022-12-31T16:38:32.824Z,66.47
2022-12-31T16:41:43.728Z,66.47
2022-12-31T16:44:46.828Z,66.51
2022-12-31T16:47:49.062Z,66.51
2022-12-31T16:50:55.904Z,66.45
2022-12-31T16:53:58.762Z,66.38
2022-12-31T16:57:00.935Z,66.46
2022-12-31T17:00:06.948Z,66.55
2022-12-31T17:03:27.120Z,66.52
2022-12-31T17:06:32.180Z,66.26
2022-12-31T17:09:37.097Z,66.33
2022-12-31T17:13:25.467Z,66.36
2022-12-31T17:16:06.946Z,66.52
2022-12-31T17:19:26.249Z,66.51
2022-12-31T17:22:37.008Z,66.72
2022-12-31T17:25:39.045Z,66.71
2022-12-31T17:28:47.425Z,66.45
2022-12-31T17:32:00.661Z,66.39
2022-12-31T17:35:03.026Z,66.34
2022-12-31T17:38:23.133Z,66.44
2022-12-31T17:41:27.279Z,66.68
2022-12-31T17:44:29.371Z,66.53
2022-12-31T17:47:36.366Z,66.73
2022-12-31T17:50:50.276Z,66.56
2022-12-31T17:53:51.812Z,66.74
2022-12-31T17:56:53.883Z,66.47
2022-12-31T17:59:56.017Z,66.84
2022-12-31T18:02:57.580Z,66.50
2022-12-31T18:05:59.166Z,66.55
2022-12-31T18:09:00.712Z,66.47
2022-12-31T18:12:05.165Z,66.46
2022-12-31T18:15:07.557Z,66.46
2022-12-31T18:18:18.147Z,66.60
2022-12-31T18:21:29.665Z,66.86
2022-12-31T18:24:31.230Z,66.78
2022-12-31T18:27:34.850Z,66.56
2022-12-31T18:30:36.473Z,66.65
2022-12-31T18:33:38.053Z,66.29
2022-12-31T18:36:39.724Z,66.69
2022-12-31T18:39:41.424Z,66.29
2022-12-31T18:42:43.050Z,66.47
2022-12-31T18:45:46.124Z,66.41
2022-12-31T18:48:47.712Z,66.35
2022-12-31T18:51:54.019Z,66.42
2022-12-31T18:54:55.571Z,66.42
2022-12-31T18:57:57.136Z,66.55
2022-12-31T19:00:58.808Z,66.12
2022-12-31T19:04:03.320Z,66.42
2022-12-31T19:07:04.903Z,66.44
2022-12-31T19:10:06.714Z,66.59
2022-12-31T19:13:12.998Z,66.28
2022-12-31T19:16:14.742Z,66.17
2022-12-31T19:19:17.063Z,66.18
2022-12-31T19:22:18.563Z,66.20
2022-12-31T19:25:25.739Z,66.30
2022-12-31T19:28:28.417Z,66.35
2022-12-31T19:31:29.983Z,66.36
2022-12-31T19:34:31.579Z,65.98
2022-12-31T19:37:33.082Z,65.99
2022-12-31T19:40:34.623Z,66.37
2022-12-31T19:43:36.145Z,66.45
2022-12-31T19:46:37.711Z,66.18
2022-12-31T19:49:39.225Z,66.04
2022-12-31T19:52:41.027Z,65.96
2022-12-31T19:55:42.917Z,66.13
2022-12-31T19:58:45.117Z,65.86
2022-12-31T20:01:46.754Z,66.10
2022-12-31T20:04:48.405Z,65.87
2022-12-31T20:07:50.046Z,66.12
2022-12-31T20:10:51.583Z,65.84
2022-12-31T20:13:54.110Z,65.69
2022-12-31T20:16:56.309Z,66.03
2022-12-31T20:19:57.937Z,66.17
2022-12-31T20:22:59.470Z,65.88
2022-12-31T20:26:01.807Z,65.67
2022-12-31T20:29:03.416Z,65.93
2022-12-31T20:32:05.231Z,65.66
2022-12-31T20:35:07.220Z,65.93
2022-12-31T20:38:09.055Z,65.52
2022-12-31T20:41:14.564Z,65.60
2022-12-31T20:44:16.141Z,65.75
2022-12-31T20:47:17.676Z,65.43
2022-12-31T20:50:19.316Z,65.41
2022-12-31T20:53:20.935Z,65.78
2022-12-31T20:56:23.955Z,65.45
2022-12-31T20:59:25.786Z,65.15
2022-12-31T21:02:40.676Z,65.50
2022-12-31T21:05:54.753Z,65.06
2022-12-31T21:08:58.495Z,65.50
2022-12-31T21:12:19.221Z,65.25
2022-12-31T21:15:21.589Z,65.01
2022-12-31T21:18:23.534Z,64.90
2022-12-31T21:21:25.072Z,65.22
2022-12-31T21:24:26.646Z,65.21
2022-12-31T21:27:31.536Z,65.09
2022-12-31T21:30:33.314Z,64.75
2022-12-31T21:33:35.237Z,65.00
2022-12-31T21:36:36.924Z,64.94
2022-12-31T21:39:38.475Z,64.88
2022-12-31T21:42:39.996Z,64.79
2022-12-31T21:45:41.910Z,64.81
2022-12-31T21:48:43.409Z,64.56
2022-12-31T21:52:03.345Z,64.82
2022-12-31T21:55:24.216Z,64.73
2022-12-31T21:58:27.544Z,64.50
2022-12-31T22:01:48.270Z,64.56
2022-12-31T22:05:14.073Z,64.17
2022-12-31T22:08:11.436Z,64.30
2022-12-31T22:11:14.223Z,64.45
2022-12-31T22:14:15.803Z,64.30
2022-12-31T22:17:17.464Z,64.03
2022-12-31T22:20:28.120Z,64.38
2022-12-31T22:23:31.204Z,64.04
2022-12-31T22:26:32.810Z,64.23
2022-12-31T22:29:34.364Z,64.36
2022-12-31T22:32:36.885Z,64.20
2022-12-31T22:35:38.477Z,63.84
2022-12-31T22:38:40.251Z,64.25
2022-12-31T22:41:41.978Z,64.10
2022-12-31T22:44:43.548Z,63.83
2022-12-31T22:47:45.081Z,63.94
2022-12-31T22:50:54.956Z,63.67
2022-12-31T22:53:56.578Z,63.86
2022-12-31T22:56:58.190Z,63.74
2022-12-31T22:59:59.719Z,63.89
2022-12-31T23:03:01.331Z,63.52
2022-12-31T23:06:02.982Z,63.55
2022-12-31T23:09:23.077Z,63.73
2022-12-31T23:12:24.701Z,63.36
2022-12-31T23:15:44.671Z,63.47
2022-12-31T23:19:05.699Z,63.38
2022-12-31T23:22:25.724Z,63.47
2022-12-31T23:25:27.341Z,63.34
2022-12-31T23:28:28.945Z,63.56
2022-12-31T23:31:30.619Z,63.47
2022-12-31T23:34:32.706Z,63.09
2022-12-31T23:37:34.287Z,63.28
2022-12-31T23:40:35.899Z,63.39
2022-12-31T23:43:37.469Z,63.42
2022-12-31T23:46:39.903Z,63.32
2022-12-31T23:49:41.523Z,63.10
2022-12-31T23:52:43.037Z,63.15
2022-12-31T23:55:44.617Z,63.21
2022-12-31T23:58:46.261Z,63.03
